createdAt,value
2016-11-02T00:00:47.583Z,0
2016-11-02T00:01:58.032Z,0
2016-11-02T00:03:08.485Z,0
2016-11-02T00:04:18.934Z,0
2016-11-02T00:05:43.927Z,0
2016-11-02T00:06:54.373Z,0
2016-11-02T00:08:04.817Z,0
2016-11-02T00:09:15.360Z,0
2016-11-02T00:10:25.803Z,0
2016-11-02T00:11:50.797Z,0
2016-11-02T00:13:01.242Z,0
2016-11-02T00:14:26.236Z,0
2016-11-02T00:15:51.231Z,0
2016-11-02T00:17:01.711Z,0
2016-11-02T00:18:12.158Z,0
2016-11-02T00:19:22.600Z,0
2016-11-02T00:20:33.141Z,0
2016-11-02T00:21:43.680Z,0
2016-11-02T00:22:54.220Z,0
2016-11-02T00:24:04.762Z,0
2016-11-02T00:25:15.303Z,0
2016-11-02T00:26:54.992Z,0
2016-11-02T00:28:05.422Z,0
2016-11-02T00:29:15.840Z,0
2016-11-02T00:30:26.291Z,0
2016-11-02T00:31:36.712Z,0
2016-11-02T00:32:47.134Z,0
2016-11-02T00:33:57.553Z,0
2016-11-02T00:35:07.982Z,0
2016-11-02T00:36:18.399Z,0
2016-11-02T00:37:28.921Z,0
2016-11-02T00:38:53.893Z,0
2016-11-02T00:40:04.801Z,0
2016-11-02T00:41:15.217Z,0
2016-11-02T00:42:40.578Z,0
2016-11-02T00:43:51.000Z,0
2016-11-02T00:45:01.416Z,0
2016-11-02T00:46:11.841Z,0
2016-11-02T00:47:22.257Z,0
2016-11-02T00:48:32.683Z,0
2016-11-02T00:49:43.105Z,0
2016-11-02T00:50:53.525Z,0
2016-11-02T00:52:03.947Z,0
2016-11-02T00:53:14.371Z,0
2016-11-02T00:54:24.794Z,0
2016-11-02T00:55:35.700Z,0
2016-11-02T00:56:46.119Z,0
2016-11-02T00:57:56.737Z,0
2016-11-02T00:59:07.169Z,0
2016-11-02T01:00:17.585Z,0
2016-11-02T01:01:28.111Z,0
2016-11-02T01:02:38.649Z,0
2016-11-02T01:03:49.687Z,0
2016-11-02T01:05:00.136Z,0
2016-11-02T01:06:10.585Z,0
2016-11-02T01:07:35.580Z,0
2016-11-02T01:08:46.031Z,0
2016-11-02T01:09:56.474Z,0
2016-11-02T01:11:06.917Z,0
2016-11-02T01:12:17.364Z,0
2016-11-02T01:13:27.823Z,0
2016-11-02T01:14:38.272Z,0
2016-11-02T01:15:48.818Z,0
2016-11-02T01:16:59.294Z,0
2016-11-02T01:18:09.741Z,0
2016-11-02T01:19:20.670Z,0
2016-11-02T01:20:31.115Z,0
2016-11-02T01:21:41.658Z,0
2016-11-02T01:22:52.105Z,0
2016-11-02T01:24:02.550Z,0
2016-11-02T01:25:12.997Z,0
2016-11-02T01:26:23.850Z,0
2016-11-02T01:27:34.296Z,0
2016-11-02T01:28:59.321Z,0
2016-11-02T01:30:24.311Z,0
2016-11-02T01:31:34.757Z,0
2016-11-02T01:32:45.203Z,0
2016-11-02T01:33:55.649Z,0
2016-11-02T01:35:06.099Z,0
2016-11-02T01:36:16.548Z,0
2016-11-02T01:37:27.484Z,0
2016-11-02T01:38:37.934Z,0
2016-11-02T01:41:13.363Z,0
2016-11-02T01:42:23.835Z,0
2016-11-02T01:43:48.823Z,0
2016-11-02T01:44:59.269Z,0
2016-11-02T01:46:09.716Z,0
2016-11-02T01:47:20.382Z,0
2016-11-02T01:48:31.030Z,0
2016-11-02T01:49:41.618Z,0
2016-11-02T01:50:52.107Z,0
2016-11-02T01:52:02.600Z,0
2016-11-02T01:53:13.166Z,0
2016-11-02T01:54:23.685Z,0
2016-11-02T01:55:34.372Z,0
2016-11-02T01:56:44.843Z,0
2016-11-02T01:57:55.290Z,0
2016-11-02T01:59:06.241Z,0
2016-11-02T02:00:16.687Z,0
2016-11-02T02:01:27.133Z,0
2016-11-02T02:02:37.651Z,0
2016-11-02T02:03:48.094Z,0
2016-11-02T02:04:58.542Z,0
2016-11-02T02:06:08.986Z,0
2016-11-02T02:07:19.437Z,0
2016-11-02T02:08:29.805Z,0
2016-11-02T02:09:40.137Z,0
2016-11-02T02:10:50.462Z,0
2016-11-02T02:12:00.789Z,0
2016-11-02T02:13:11.119Z,0
2016-11-02T02:14:21.456Z,0
2016-11-02T02:15:31.790Z,0
2016-11-02T02:16:42.119Z,0
2016-11-02T02:17:52.453Z,0
2016-11-02T02:19:02.884Z,0
2016-11-02T02:20:13.255Z,0
2016-11-02T02:21:23.625Z,0
2016-11-02T02:22:33.950Z,0
2016-11-02T02:23:44.275Z,0
2016-11-02T02:24:54.608Z,0
2016-11-02T02:26:04.937Z,0
2016-11-02T02:27:15.265Z,0
2016-11-02T02:28:25.594Z,0
2016-11-02T02:29:35.920Z,0
2016-11-02T02:30:46.448Z,0
2016-11-02T02:31:56.777Z,0
2016-11-02T02:33:07.143Z,0
2016-11-02T02:34:17.547Z,0
2016-11-02T02:35:27.968Z,0
2016-11-02T02:36:38.589Z,0
2016-11-02T02:37:49.007Z,0
2016-11-02T02:38:59.457Z,0
2016-11-02T02:40:09.882Z,0
2016-11-02T02:41:20.352Z,0
2016-11-02T02:42:30.873Z,0
2016-11-02T02:43:41.295Z,0
2016-11-02T02:44:51.745Z,0
2016-11-02T02:46:16.713Z,0
2016-11-02T02:47:27.247Z,0
2016-11-02T02:48:37.667Z,0
2016-11-02T02:49:48.092Z,0
2016-11-02T02:50:58.515Z,0
2016-11-02T02:52:08.938Z,0
2016-11-02T02:53:19.561Z,0
2016-11-02T02:54:29.980Z,0
2016-11-02T02:55:40.409Z,0
2016-11-02T02:56:50.865Z,0
2016-11-02T02:58:01.291Z,0
2016-11-02T02:59:11.713Z,0
2016-11-02T03:00:22.131Z,0
2016-11-02T03:01:32.556Z,0
2016-11-02T03:02:42.982Z,0
2016-11-02T03:03:53.405Z,0
2016-11-02T03:05:03.826Z,0
2016-11-02T03:06:14.276Z,0
2016-11-02T03:07:24.693Z,0
2016-11-02T03:08:35.117Z,0
2016-11-02T03:09:45.534Z,0
2016-11-02T03:10:55.965Z,0
2016-11-02T03:12:06.381Z,0
2016-11-02T03:13:16.868Z,0
2016-11-02T03:14:27.289Z,0
2016-11-02T03:15:37.706Z,0
2016-11-02T03:16:48.323Z,0
2016-11-02T03:18:13.332Z,0
2016-11-02T03:19:23.754Z,0
2016-11-02T03:20:34.177Z,0
2016-11-02T03:21:59.147Z,0
2016-11-02T03:23:09.586Z,0
2016-11-02T03:24:20.005Z,0
2016-11-02T03:25:30.427Z,0
2016-11-02T03:26:40.891Z,0
2016-11-02T03:27:51.512Z,0
2016-11-02T03:29:01.930Z,0
2016-11-02T03:30:12.353Z,0
2016-11-02T03:31:22.772Z,0
2016-11-02T03:32:33.193Z,0
2016-11-02T03:33:43.719Z,0
2016-11-02T03:34:54.142Z,0
2016-11-02T03:36:04.558Z,0
2016-11-02T03:37:14.980Z,0
2016-11-02T03:38:40.351Z,0
2016-11-02T03:39:50.773Z,0
2016-11-02T03:41:01.230Z,0
2016-11-02T03:42:11.647Z,0
2016-11-02T03:43:22.281Z,0
2016-11-02T03:44:32.708Z,0
2016-11-02T03:45:43.164Z,0
2016-11-02T03:46:53.581Z,0
2016-11-02T03:48:04.486Z,0
2016-11-02T03:49:15.009Z,0
2016-11-02T03:50:25.747Z,0
2016-11-02T03:51:36.294Z,0
2016-11-02T03:52:46.840Z,0
2016-11-02T03:53:57.413Z,0
2016-11-02T03:55:22.614Z,0
2016-11-02T03:56:33.151Z,0
2016-11-02T03:57:43.687Z,0
2016-11-02T03:58:54.232Z,0
2016-11-02T04:00:04.768Z,0
2016-11-02T04:01:15.506Z,0
2016-11-02T04:02:26.043Z,0
2016-11-02T04:03:36.581Z,0
2016-11-02T04:04:47.123Z,0
2016-11-02T04:05:57.662Z,0
2016-11-02T04:07:08.467Z,0
2016-11-02T04:08:19.001Z,0
2016-11-02T04:09:29.535Z,0
2016-11-02T04:10:40.072Z,0
2016-11-02T04:11:50.609Z,0
2016-11-02T04:13:01.244Z,0
2016-11-02T04:14:12.317Z,0
2016-11-02T04:15:22.858Z,0
2016-11-02T04:16:47.941Z,0
2016-11-02T04:17:58.675Z,0
2016-11-02T04:19:09.246Z,0
2016-11-02T04:20:19.780Z,0
2016-11-02T04:21:30.305Z,0
2016-11-02T04:22:40.728Z,0
2016-11-02T04:23:51.666Z,0
2016-11-02T04:25:02.088Z,0
2016-11-02T04:26:12.990Z,0
2016-11-02T04:27:23.405Z,0
2016-11-02T04:28:33.838Z,0
2016-11-02T04:29:44.459Z,0
2016-11-02T04:30:54.928Z,0
2016-11-02T04:32:05.396Z,0
2016-11-02T04:33:15.814Z,0
2016-11-02T04:34:26.237Z,0
2016-11-02T04:35:36.702Z,0
2016-11-02T04:36:47.160Z,0
2016-11-02T04:37:57.586Z,0
2016-11-02T04:39:08.006Z,0
2016-11-02T04:40:18.477Z,0
2016-11-02T04:41:28.892Z,0
2016-11-02T04:42:39.313Z,0
2016-11-02T04:43:49.730Z,0
2016-11-02T04:45:14.696Z,0
2016-11-02T04:46:25.603Z,0
2016-11-02T04:47:36.029Z,0
2016-11-02T04:48:46.446Z,0
2016-11-02T04:49:56.861Z,0
2016-11-02T04:51:07.284Z,0
2016-11-02T04:52:17.701Z,0
2016-11-02T04:53:28.119Z,0
2016-11-02T04:54:38.538Z,0
2016-11-02T04:55:48.957Z,0
2016-11-02T04:56:59.381Z,0
2016-11-02T04:58:10.007Z,0
2016-11-02T04:59:20.458Z,0
2016-11-02T05:00:30.887Z,0
2016-11-02T05:01:41.309Z,0
2016-11-02T05:02:51.734Z,0
2016-11-02T05:04:02.363Z,0
2016-11-02T05:05:13.027Z,0
2016-11-02T05:06:23.964Z,0
2016-11-02T05:07:34.407Z,0
2016-11-02T05:08:44.819Z,0
2016-11-02T05:09:55.437Z,0
2016-11-02T05:11:05.868Z,0
2016-11-02T05:12:16.289Z,0
2016-11-02T05:13:27.194Z,0
2016-11-02T05:14:37.608Z,0
2016-11-02T05:15:48.023Z,0
2016-11-02T05:16:58.440Z,0
2016-11-02T05:18:23.434Z,0
2016-11-02T05:19:33.849Z,0
2016-11-02T05:20:44.273Z,0
2016-11-02T05:21:55.186Z,0
2016-11-02T05:23:05.605Z,0
2016-11-02T05:24:16.529Z,0
2016-11-02T05:25:26.983Z,0
2016-11-02T05:26:37.606Z,0
2016-11-02T05:27:48.059Z,0
2016-11-02T05:28:58.480Z,0
2016-11-02T05:30:23.449Z,0
2016-11-02T05:31:33.967Z,0
2016-11-02T05:32:44.424Z,0
2016-11-02T05:33:54.839Z,0
2016-11-02T05:35:05.176Z,0
2016-11-02T05:36:15.504Z,0
2016-11-02T05:37:25.829Z,0
2016-11-02T05:38:36.155Z,0
2016-11-02T05:39:46.485Z,0
2016-11-02T05:40:56.811Z,0
2016-11-02T05:42:07.137Z,0
2016-11-02T05:43:17.469Z,0
2016-11-02T05:44:27.831Z,0
2016-11-02T05:45:38.154Z,0
2016-11-02T05:46:48.482Z,0
2016-11-02T05:47:58.810Z,0
2016-11-02T05:49:09.333Z,0
2016-11-02T05:50:19.665Z,0
2016-11-02T05:51:29.991Z,0
2016-11-02T05:52:40.313Z,0
2016-11-02T05:53:50.675Z,0
2016-11-02T05:55:01.209Z,0
2016-11-02T05:56:11.532Z,0
2016-11-02T05:57:21.856Z,0
2016-11-02T05:58:32.181Z,0
2016-11-02T05:59:42.502Z,0
2016-11-02T06:00:52.863Z,0
2016-11-02T06:02:03.188Z,0
2016-11-02T06:03:13.509Z,0
2016-11-02T06:04:23.835Z,0
2016-11-02T06:05:34.199Z,0
2016-11-02T06:06:44.728Z,0
2016-11-02T06:09:34.509Z,0
2016-11-02T06:10:44.833Z,0
2016-11-02T06:11:55.258Z,0
2016-11-02T06:13:05.630Z,0
2016-11-02T06:14:15.956Z,0
2016-11-02T06:15:26.279Z,0
2016-11-02T06:16:36.604Z,0
2016-11-02T06:17:47.201Z,0
2016-11-02T06:18:57.526Z,0
2016-11-02T06:20:07.850Z,0
2016-11-02T06:21:18.180Z,0
2016-11-02T06:22:28.978Z,0
2016-11-02T06:23:39.302Z,0
2016-11-02T06:24:49.624Z,0
2016-11-02T06:25:59.951Z,0
2016-11-02T06:27:24.876Z,0
2016-11-02T06:28:35.301Z,0
2016-11-02T06:29:45.668Z,0
2016-11-02T06:30:55.992Z,0
2016-11-02T06:32:06.321Z,0
2016-11-02T06:33:16.649Z,0
2016-11-02T06:34:41.547Z,0
2016-11-02T06:35:52.351Z,0
2016-11-02T06:37:02.683Z,0
2016-11-02T06:38:13.118Z,0
2016-11-02T06:39:23.760Z,0
2016-11-02T06:40:34.201Z,0
2016-11-02T06:41:44.643Z,0
2016-11-02T06:42:55.120Z,0
2016-11-02T06:44:05.572Z,0
2016-11-02T06:45:16.015Z,0
2016-11-02T06:46:26.489Z,0
2016-11-02T06:47:37.434Z,0
2016-11-02T06:48:47.874Z,0
2016-11-02T06:49:58.324Z,0
2016-11-02T06:51:08.968Z,0
2016-11-02T06:52:19.411Z,0
2016-11-02T06:53:29.856Z,0
2016-11-02T06:54:40.301Z,0
2016-11-02T06:55:50.737Z,0
2016-11-02T06:57:01.382Z,0
2016-11-02T06:58:11.825Z,0
2016-11-02T06:59:22.270Z,0
2016-11-02T07:00:32.713Z,0
2016-11-02T07:01:43.167Z,0
2016-11-02T07:02:53.716Z,0
2016-11-02T07:04:04.650Z,0
2016-11-02T07:05:15.093Z,0
2016-11-02T07:06:25.534Z,0
2016-11-02T07:07:35.981Z,0
2016-11-02T07:08:46.526Z,0
2016-11-02T07:09:56.971Z,0
2016-11-02T07:11:07.411Z,0
2016-11-02T07:12:17.852Z,0
2016-11-02T07:13:28.305Z,0
2016-11-02T07:14:38.846Z,0
2016-11-02T07:15:49.289Z,0
2016-11-02T07:16:59.731Z,0
2016-11-02T07:18:10.220Z,0
2016-11-02T07:19:20.660Z,0
2016-11-02T07:20:31.099Z,0
2016-11-02T07:21:41.543Z,0
2016-11-02T07:22:51.983Z,0
2016-11-02T07:24:02.433Z,0
2016-11-02T07:25:12.880Z,0
2016-11-02T07:26:23.919Z,0
2016-11-02T07:27:34.360Z,0
2016-11-02T07:28:44.799Z,0
2016-11-02T07:29:55.243Z,0
2016-11-02T07:31:05.679Z,0
2016-11-02T07:32:16.333Z,0
2016-11-02T07:33:26.776Z,0
2016-11-02T07:34:37.253Z,0
2016-11-02T07:35:48.183Z,0
2016-11-02T07:36:58.631Z,0
2016-11-02T07:38:09.276Z,0
2016-11-02T07:39:34.262Z,0
2016-11-02T07:40:44.711Z,0
2016-11-02T07:41:55.154Z,0
2016-11-02T07:43:05.798Z,0
2016-11-02T07:44:16.240Z,0
2016-11-02T07:45:26.578Z,0
2016-11-02T07:46:36.944Z,0
2016-11-02T07:48:01.836Z,0
2016-11-02T07:49:26.764Z,0
2016-11-02T07:50:37.090Z,0
2016-11-02T07:53:12.510Z,0
2016-11-02T07:54:22.866Z,0
2016-11-02T07:55:33.188Z,0
2016-11-02T07:56:43.553Z,0
2016-11-02T07:57:53.877Z,0
2016-11-02T07:59:04.303Z,0
2016-11-02T08:00:14.629Z,0
2016-11-02T08:01:24.952Z,0
2016-11-02T08:02:35.279Z,0
2016-11-02T08:03:45.603Z,0
2016-11-02T08:04:55.930Z,0
2016-11-02T08:06:06.262Z,0
2016-11-02T08:07:16.586Z,0
2016-11-02T08:08:41.478Z,0
2016-11-02T08:09:51.845Z,0
2016-11-02T08:11:02.167Z,0
2016-11-02T08:12:12.494Z,0
2016-11-02T08:13:22.820Z,0
2016-11-02T08:14:33.183Z,0
2016-11-02T08:15:43.707Z,0
2016-11-02T08:16:54.037Z,0
2016-11-02T08:18:04.548Z,0
2016-11-02T08:19:29.448Z,0
2016-11-02T08:20:39.774Z,0
2016-11-02T08:21:50.104Z,0
2016-11-02T08:23:00.462Z,0
2016-11-02T08:24:10.790Z,0
2016-11-02T08:25:21.113Z,0
2016-11-02T08:26:31.641Z,0
2016-11-02T08:27:41.969Z,0
2016-11-02T08:28:52.481Z,0
2016-11-02T08:30:02.843Z,0
2016-11-02T08:31:13.169Z,0
2016-11-02T08:32:23.494Z,0
2016-11-02T08:33:33.820Z,0
2016-11-02T08:34:44.235Z,0
2016-11-02T08:36:09.209Z,0
2016-11-02T08:37:19.629Z,0
2016-11-02T08:38:44.596Z,0
2016-11-02T08:39:55.014Z,0
2016-11-02T08:41:05.431Z,0
2016-11-02T08:42:15.946Z,0
2016-11-02T08:43:26.366Z,0
2016-11-02T08:44:36.824Z,0
2016-11-02T08:45:47.242Z,0
2016-11-02T08:46:57.660Z,0
2016-11-02T08:48:08.312Z,0
2016-11-02T08:49:18.753Z,0
2016-11-02T08:50:29.168Z,5
2016-11-02T08:51:40.045Z,5
2016-11-02T08:52:50.584Z,5
2016-11-02T08:54:01.324Z,5
2016-11-02T08:55:11.865Z,5
2016-11-02T08:56:22.436Z,5
2016-11-02T08:57:33.472Z,5
2016-11-02T08:58:44.007Z,5
2016-11-02T08:59:54.749Z,10
2016-11-02T09:01:05.358Z,10
2016-11-02T09:02:15.937Z,10
2016-11-02T09:03:26.519Z,10
2016-11-02T09:04:51.587Z,10
2016-11-02T09:06:02.126Z,10
2016-11-02T09:07:12.702Z,10
2016-11-02T09:08:23.237Z,10
2016-11-02T09:09:33.770Z,10
2016-11-02T09:10:44.422Z,10
2016-11-02T09:11:54.963Z,10
2016-11-02T09:13:05.576Z,10
2016-11-02T09:14:16.118Z,10
2016-11-02T09:15:26.657Z,10
2016-11-02T09:16:37.287Z,10
2016-11-02T09:17:47.822Z,10
2016-11-02T09:18:58.352Z,10
2016-11-02T09:20:08.792Z,10
2016-11-02T09:21:19.234Z,10
2016-11-02T09:22:29.880Z,10
2016-11-02T09:23:40.327Z,10
2016-11-02T09:24:50.775Z,10
2016-11-02T09:26:01.218Z,10
2016-11-02T09:27:11.673Z,10
2016-11-02T09:28:22.315Z,10
2016-11-02T09:29:32.759Z,10
2016-11-02T09:30:43.309Z,10
2016-11-02T09:31:53.748Z,10
2016-11-02T09:33:04.190Z,10
2016-11-02T09:34:14.632Z,10
2016-11-02T09:35:39.619Z,10
2016-11-02T09:36:50.062Z,10
2016-11-02T09:38:00.505Z,10
2016-11-02T09:39:11.570Z,10
2016-11-02T09:40:22.015Z,10
2016-11-02T09:41:32.458Z,10
2016-11-02T09:42:43.709Z,15
2016-11-02T09:44:08.763Z,15
2016-11-02T09:45:33.744Z,15
2016-11-02T09:48:09.174Z,15
2016-11-02T09:49:19.814Z,20
2016-11-02T09:50:30.297Z,20
2016-11-02T09:51:40.745Z,20
2016-11-02T09:52:51.185Z,20
2016-11-02T09:54:01.630Z,20
2016-11-02T09:55:12.562Z,20
2016-11-02T09:58:02.533Z,20
2016-11-02T09:59:12.978Z,20
2016-11-02T10:00:23.622Z,20
2016-11-02T10:01:34.061Z,20
2016-11-02T10:02:45.047Z,20
2016-11-02T10:03:55.492Z,20
2016-11-02T10:05:06.101Z,20
2016-11-02T10:06:16.776Z,20
2016-11-02T10:07:27.396Z,20
2016-11-02T10:08:37.929Z,20
2016-11-02T10:09:48.466Z,20
2016-11-02T10:10:58.999Z,20
2016-11-02T10:12:09.533Z,20
2016-11-02T10:13:20.101Z,20
2016-11-02T10:14:30.637Z,20
2016-11-02T10:15:41.180Z,20
2016-11-02T10:16:51.720Z,20
2016-11-02T10:18:02.289Z,20
2016-11-02T10:19:12.824Z,20
2016-11-02T10:20:23.357Z,20
2016-11-02T10:21:33.894Z,20
2016-11-02T10:22:44.432Z,25
2016-11-02T10:23:54.978Z,20
2016-11-02T10:25:05.578Z,20
2016-11-02T10:26:16.535Z,20
2016-11-02T10:27:27.083Z,25
2016-11-02T10:28:37.620Z,25
2016-11-02T10:29:48.355Z,25
2016-11-02T10:30:58.901Z,25
2016-11-02T10:33:34.516Z,25
2016-11-02T10:34:45.248Z,20
2016-11-02T10:35:55.785Z,20
2016-11-02T10:37:06.711Z,20
2016-11-02T10:38:17.250Z,20
2016-11-02T10:39:27.877Z,20
2016-11-02T10:40:38.292Z,20
2016-11-02T10:41:48.709Z,20
2016-11-02T10:42:59.124Z,20
2016-11-02T10:44:09.544Z,20
2016-11-02T10:45:19.964Z,20
2016-11-02T10:46:30.491Z,20
2016-11-02T10:47:40.909Z,20
2016-11-02T10:48:51.334Z,20
2016-11-02T10:50:01.786Z,20
2016-11-02T10:51:12.207Z,20
2016-11-02T10:52:22.727Z,20
2016-11-02T10:53:33.147Z,20
2016-11-02T10:56:23.166Z,20
2016-11-02T10:57:33.626Z,20
2016-11-02T10:58:44.039Z,20
2016-11-02T10:59:54.477Z,20
2016-11-02T11:01:05.375Z,20
2016-11-02T11:02:15.787Z,20
2016-11-02T11:03:26.405Z,20
2016-11-02T11:04:36.820Z,20
2016-11-02T11:05:47.263Z,20
2016-11-02T11:06:57.679Z,20
2016-11-02T11:08:08.088Z,20
2016-11-02T11:09:18.701Z,20
2016-11-02T11:10:29.113Z,20
2016-11-02T11:11:39.526Z,20
2016-11-02T11:12:49.942Z,20
2016-11-02T11:14:00.356Z,20
2016-11-02T11:15:10.973Z,20
2016-11-02T11:16:21.439Z,20
2016-11-02T11:17:32.352Z,20
2016-11-02T11:18:42.770Z,20
2016-11-02T11:19:53.183Z,15
2016-11-02T11:21:18.828Z,15
2016-11-02T11:22:29.244Z,15
2016-11-02T11:23:39.667Z,20
2016-11-02T11:24:50.079Z,20
2016-11-02T11:26:15.145Z,20
2016-11-02T11:27:40.118Z,20
2016-11-02T11:30:15.495Z,20
2016-11-02T11:31:26.160Z,20
2016-11-02T11:32:36.690Z,20
2016-11-02T11:33:47.173Z,20
2016-11-02T11:34:57.617Z,20
2016-11-02T11:36:08.027Z,20
2016-11-02T11:37:18.640Z,20
2016-11-02T11:38:29.051Z,20
2016-11-02T11:39:39.467Z,20
2016-11-02T11:40:49.925Z,25
2016-11-02T11:42:00.375Z,20
2016-11-02T11:43:25.336Z,20
2016-11-02T11:44:36.244Z,25
2016-11-02T11:45:46.769Z,25
2016-11-02T11:46:57.305Z,25
2016-11-02T11:48:07.922Z,20
2016-11-02T11:49:18.455Z,20
2016-11-02T11:50:28.990Z,20
2016-11-02T11:53:05.321Z,20
2016-11-02T11:54:15.860Z,25
2016-11-02T11:55:26.398Z,25
2016-11-02T11:56:36.969Z,25
2016-11-02T11:59:12.814Z,25
2016-11-02T12:00:23.346Z,25
2016-11-02T12:01:33.880Z,25
2016-11-02T12:02:44.416Z,30
2016-11-02T12:03:54.950Z,30
2016-11-02T12:05:05.688Z,30
2016-11-02T12:06:16.230Z,30
2016-11-02T12:07:27.268Z,30
2016-11-02T12:08:37.809Z,30
2016-11-02T12:09:48.341Z,30
2016-11-02T12:10:59.077Z,30
2016-11-02T12:12:09.609Z,40
2016-11-02T12:13:20.147Z,40
2016-11-02T12:14:30.686Z,40
2016-11-02T12:15:41.225Z,40
2016-11-02T12:16:51.756Z,45
2016-11-02T12:18:02.299Z,55
2016-11-02T12:19:12.840Z,50
2016-11-02T12:20:23.382Z,55
2016-11-02T12:21:33.963Z,55
2016-11-02T12:22:44.513Z,60
2016-11-02T12:23:55.543Z,25
2016-11-02T12:26:31.146Z,70
2016-11-02T12:27:41.686Z,70
2016-11-02T12:28:52.729Z,70
2016-11-02T12:30:03.771Z,25
2016-11-02T12:31:14.310Z,25
2016-11-02T12:32:24.847Z,75
2016-11-02T12:33:35.884Z,40
2016-11-02T12:34:46.419Z,75
2016-11-02T12:35:56.967Z,80
2016-11-02T12:37:07.536Z,90
2016-11-02T12:38:18.071Z,85
2016-11-02T12:39:28.616Z,40
2016-11-02T12:40:39.158Z,90
2016-11-02T12:41:49.699Z,95
2016-11-02T12:43:00.232Z,40
2016-11-02T12:44:10.771Z,35
2016-11-02T12:45:21.531Z,95
2016-11-02T12:46:32.069Z,80
2016-11-02T12:47:42.616Z,40
2016-11-02T12:48:53.344Z,40
2016-11-02T12:50:03.884Z,40
2016-11-02T12:51:14.429Z,95
2016-11-02T12:52:39.493Z,50
2016-11-02T12:53:50.032Z,35
2016-11-02T12:55:00.575Z,35
2016-11-02T12:56:11.214Z,35
2016-11-02T12:57:21.753Z,30
2016-11-02T12:58:32.328Z,95
2016-11-02T12:59:42.869Z,30
2016-11-02T13:00:53.409Z,35
2016-11-02T13:02:04.085Z,100
2016-11-02T13:03:29.156Z,70
2016-11-02T13:04:39.722Z,80
2016-11-02T13:05:50.259Z,25
2016-11-02T13:07:00.996Z,25
2016-11-02T13:08:11.539Z,70
2016-11-02T13:09:22.077Z,90
2016-11-02T13:10:32.625Z,25
2016-11-02T13:11:43.198Z,95
2016-11-02T13:12:53.845Z,90
2016-11-02T13:14:04.394Z,95
2016-11-02T13:15:14.935Z,75
2016-11-02T13:17:50.555Z,95
2016-11-02T13:19:01.095Z,75
2016-11-02T13:20:11.635Z,105
2016-11-02T13:21:22.180Z,100
2016-11-02T13:22:32.720Z,95
2016-11-02T13:23:43.459Z,90
2016-11-02T13:24:54.041Z,95
2016-11-02T13:26:04.580Z,30
2016-11-02T13:27:15.122Z,100
2016-11-02T13:28:25.553Z,65
2016-11-02T13:29:36.179Z,50
2016-11-02T13:30:46.605Z,35
2016-11-02T13:31:57.027Z,55
2016-11-02T13:33:07.449Z,50
2016-11-02T13:34:17.869Z,40
2016-11-02T13:35:28.392Z,45
2016-11-02T13:36:38.808Z,40
2016-11-02T13:37:49.222Z,105
2016-11-02T13:38:59.646Z,105
2016-11-02T13:40:10.063Z,40
2016-11-02T13:41:20.588Z,45
2016-11-02T13:42:31.002Z,35
2016-11-02T13:43:41.424Z,100
2016-11-02T13:45:06.396Z,90
2016-11-02T13:47:42.514Z,105
2016-11-02T13:48:52.931Z,105
2016-11-02T13:50:03.349Z,105
2016-11-02T13:51:14.004Z,105
2016-11-02T13:53:49.429Z,55
2016-11-02T13:54:59.855Z,65
2016-11-02T13:56:10.303Z,40
2016-11-02T13:57:35.475Z,45
2016-11-02T13:58:45.901Z,60
2016-11-02T13:59:56.318Z,50
2016-11-02T14:01:06.746Z,45
2016-11-02T14:02:17.261Z,40
2016-11-02T14:03:27.681Z,50
2016-11-02T14:04:38.105Z,60
2016-11-02T14:05:48.521Z,55
2016-11-02T14:06:58.950Z,45
2016-11-02T14:08:09.417Z,45
2016-11-02T14:09:20.325Z,50
2016-11-02T14:10:45.783Z,40
2016-11-02T14:11:56.208Z,40
2016-11-02T14:13:07.121Z,70
2016-11-02T14:14:17.543Z,45
2016-11-02T14:15:27.963Z,45
2016-11-02T14:16:38.377Z,50
2016-11-02T14:17:48.801Z,40
2016-11-02T14:18:59.226Z,40
2016-11-02T14:20:09.648Z,75
2016-11-02T14:21:20.068Z,45
2016-11-02T14:22:30.486Z,45
2016-11-02T14:23:40.912Z,110
2016-11-02T14:24:51.535Z,115
2016-11-02T14:26:01.955Z,110
2016-11-02T14:27:12.382Z,95
2016-11-02T14:28:22.800Z,110
2016-11-02T14:29:33.220Z,95
2016-11-02T14:30:43.746Z,75
2016-11-02T14:31:54.166Z,70
2016-11-02T14:33:04.583Z,75
2016-11-02T14:34:14.912Z,80
2016-11-02T14:35:39.816Z,75
2016-11-02T14:36:50.252Z,60
2016-11-02T14:38:00.704Z,65
2016-11-02T14:39:11.151Z,70
2016-11-02T14:40:22.128Z,60
2016-11-02T14:41:32.574Z,60
2016-11-02T14:42:43.035Z,65
2016-11-02T14:43:53.486Z,55
2016-11-02T14:45:03.950Z,45
2016-11-02T14:46:14.450Z,55
2016-11-02T14:47:25.101Z,55
2016-11-02T14:48:35.561Z,65
2016-11-02T14:50:00.558Z,60
2016-11-02T14:54:15.235Z,65
2016-11-02T14:55:25.606Z,65
2016-11-02T14:56:35.974Z,60
2016-11-02T14:57:46.348Z,60
2016-11-02T14:58:56.913Z,70
2016-11-02T15:00:07.287Z,60
2016-11-02T15:01:17.689Z,60
2016-11-02T15:02:28.055Z,65
2016-11-02T15:03:38.551Z,65
2016-11-02T15:04:49.298Z,60
2016-11-02T15:05:59.819Z,60
2016-11-02T15:07:10.535Z,55
2016-11-02T15:08:21.069Z,60
2016-11-02T15:09:31.596Z,70
2016-11-02T15:10:42.337Z,65
2016-11-02T15:11:52.762Z,70
2016-11-02T15:13:17.741Z,60
2016-11-02T15:14:28.155Z,55
2016-11-02T15:15:38.767Z,50
2016-11-02T15:16:49.182Z,55
2016-11-02T15:18:14.181Z,50
2016-11-02T15:19:24.599Z,40
2016-11-02T15:20:35.417Z,45
2016-11-02T15:22:00.780Z,70
2016-11-02T15:23:11.197Z,80
2016-11-02T15:24:21.609Z,70
2016-11-02T15:25:46.774Z,60
2016-11-02T15:27:11.741Z,70
2016-11-02T15:28:22.155Z,65
2016-11-02T15:29:32.596Z,75
2016-11-02T15:30:57.785Z,65
2016-11-02T15:32:08.418Z,55
2016-11-02T15:33:18.835Z,55
2016-11-02T15:34:29.454Z,55
2016-11-02T15:35:39.865Z,55
2016-11-02T15:36:50.679Z,55
2016-11-02T15:38:01.090Z,50
2016-11-02T15:39:11.506Z,55
2016-11-02T15:40:21.922Z,65
2016-11-02T15:41:32.335Z,50
2016-11-02T15:42:42.952Z,40
2016-11-02T15:43:53.570Z,45
2016-11-02T15:45:03.985Z,70
2016-11-02T15:46:14.402Z,50
2016-11-02T15:47:24.816Z,50
2016-11-02T15:48:35.434Z,45
2016-11-02T15:49:45.849Z,50
2016-11-02T15:51:11.015Z,40
2016-11-02T15:52:36.018Z,40
2016-11-02T15:53:46.632Z,40
2016-11-02T15:54:57.054Z,40
2016-11-02T15:56:07.868Z,40
2016-11-02T15:57:18.284Z,35
2016-11-02T15:58:28.704Z,30
2016-11-02T15:59:39.317Z,30
2016-11-02T16:00:49.734Z,35
2016-11-02T16:02:00.175Z,35
2016-11-02T16:03:10.787Z,40
2016-11-02T16:04:21.204Z,40
2016-11-02T16:05:31.819Z,40
2016-11-02T16:06:42.267Z,40
2016-11-02T16:08:07.230Z,40
2016-11-02T16:09:18.046Z,40
2016-11-02T16:10:28.457Z,40
2016-11-02T16:11:53.421Z,30
2016-11-02T16:13:03.840Z,30
2016-11-02T16:14:14.263Z,35
2016-11-02T16:15:24.679Z,35
2016-11-02T16:16:35.087Z,35
2016-11-02T16:17:45.912Z,35
2016-11-02T16:18:56.363Z,40
2016-11-02T16:20:06.879Z,40
2016-11-02T16:21:17.619Z,35
2016-11-02T16:22:28.155Z,35
2016-11-02T16:23:38.893Z,30
2016-11-02T16:24:49.614Z,25
2016-11-02T16:26:00.149Z,20
2016-11-02T16:27:10.789Z,15
2016-11-02T16:28:35.859Z,15
2016-11-02T16:29:46.808Z,15
2016-11-02T16:30:58.029Z,15
2016-11-02T16:32:08.858Z,20
2016-11-02T16:33:19.782Z,20
2016-11-02T16:34:30.715Z,20
2016-11-02T16:35:41.254Z,20
2016-11-02T16:36:51.800Z,20
2016-11-02T16:38:02.730Z,20
2016-11-02T16:39:13.269Z,25
2016-11-02T16:40:23.806Z,25
2016-11-02T16:41:34.839Z,35
2016-11-02T16:42:45.381Z,35
2016-11-02T16:43:56.117Z,40
2016-11-02T16:45:06.659Z,45
2016-11-02T16:46:17.194Z,50
2016-11-02T16:47:27.744Z,50
2016-11-02T16:48:38.275Z,50
2016-11-02T16:49:49.031Z,50
2016-11-02T16:51:14.284Z,50
2016-11-02T16:53:50.288Z,50
2016-11-02T16:55:01.054Z,50
2016-11-02T16:56:12.081Z,50
2016-11-02T16:57:22.616Z,50
2016-11-02T16:58:33.150Z,50
2016-11-02T16:59:43.684Z,35
2016-11-02T17:00:54.421Z,45
2016-11-02T17:02:05.842Z,45
2016-11-02T17:03:16.391Z,30
2016-11-02T17:04:26.949Z,35
2016-11-02T17:05:37.983Z,50
2016-11-02T17:06:48.619Z,50
2016-11-02T17:07:59.157Z,50
2016-11-02T17:09:09.909Z,45
2016-11-02T17:10:20.943Z,45
2016-11-02T17:11:31.483Z,45
2016-11-02T17:12:42.025Z,40
2016-11-02T17:13:52.568Z,40
2016-11-02T17:15:03.295Z,40
2016-11-02T17:16:14.228Z,45
2016-11-02T17:17:24.768Z,30
2016-11-02T17:18:35.408Z,25
2016-11-02T17:19:46.167Z,40
2016-11-02T17:20:56.925Z,40
2016-11-02T17:22:07.469Z,35
2016-11-02T17:23:18.514Z,30
2016-11-02T17:24:29.442Z,30
2016-11-02T17:25:39.990Z,25
2016-11-02T17:26:50.533Z,25
2016-11-02T17:28:01.258Z,40
2016-11-02T17:29:11.796Z,35
2016-11-02T17:30:22.531Z,20
2016-11-02T17:31:33.465Z,15
2016-11-02T17:32:44.204Z,35
2016-11-02T17:33:54.764Z,40
2016-11-02T17:35:05.401Z,35
2016-11-02T17:37:41.373Z,40
2016-11-02T17:38:52.410Z,35
2016-11-02T17:40:17.550Z,20
2016-11-02T17:41:28.282Z,35
2016-11-02T17:42:38.915Z,20
2016-11-02T17:43:50.012Z,35
2016-11-02T17:45:01.256Z,40